sensor_id;sensor_type;location;lat;lon;timestamp;pressure;altitude;pressure_sealevel;temperature;humidity
49104;BME280;34915;52.926;11.116;2022-10-22T00:00:06;100910.41;;;13.89;100.00
49104;BME280;34915;52.926;11.116;2022-10-22T00:02:32;100919.38;;;13.88;100.00
49104;BME280;34915;52.926;11.116;2022-10-22T00:05:00;100914.28;;;13.85;100.00
49104;BME280;34915;52.926;11.116;2022-10-22T00:07:25;100908.34;;;13.82;100.00
49104;BME280;34915;52.926;11.116;2022-10-22T00:09:51;100905.81;;;13.80;100.00
49104;BME280;34915;52.926;11.116;2022-10-22T00:12:20;100896.00;;;13.81;100.00
49104;BME280;34915;52.926;11.116;2022-10-22T00:14:46;100888.16;;;13.79;100.00
49104;BME280;34915;52.926;11.116;2022-10-22T00:17:12;100888.41;;;13.77;100.00
49104;BME280;34915;52.926;11.116;2022-10-22T00:19:38;100895.16;;;13.80;100.00
49104;BME280;34915;52.926;11.116;2022-10-22T00:22:04;100889.59;;;13.83;100.00
49104;BME280;34915;52.926;11.116;2022-10-22T00:24:31;100891.53;;;13.81;100.00
49104;BME280;34915;52.926;11.116;2022-10-22T00:26:57;100885.34;;;13.81;100.00
49104;BME280;34915;52.926;11.116;2022-10-22T00:29:24;100884.53;;;13.80;100.00
49104;BME280;34915;52.926;11.116;2022-10-22T00:31:53;100883.06;;;13.77;100.00
49104;BME280;34915;52.926;11.116;2022-10-22T00:34:21;100888.41;;;13.77;100.00
49104;BME280;34915;52.926;11.116;2022-10-22T00:36:51;100892.06;;;13.76;100.00
49104;BME280;34915;52.926;11.116;2022-10-22T00:39:22;100890.34;;;13.75;100.00
49104;BME280;34915;52.926;11.116;2022-10-22T00:41:52;100893.47;;;13.79;100.00
49104;BME280;34915;52.926;11.116;2022-10-22T00:47:40;100897.63;;;13.73;100.00
49104;BME280;34915;52.926;11.116;2022-10-22T00:50:32;100900.88;;;13.76;100.00
49104;BME280;34915;52.926;11.116;2022-10-22T00:52:59;100903.88;;;13.82;100.00
49104;BME280;34915;52.926;11.116;2022-10-22T00:55:28;100908.94;;;13.85;100.00
49104;BME280;34915;52.926;11.116;2022-10-22T00:57:56;100900.00;;;13.86;100.00
49104;BME280;34915;52.926;11.116;2022-10-22T01:00:23;100901.44;;;13.90;100.00
49104;BME280;34915;52.926;11.116;2022-10-22T01:02:50;100906.78;;;13.90;100.00
49104;BME280;34915;52.926;11.116;2022-10-22T01:05:17;100917.88;;;13.95;100.00
49104;BME280;34915;52.926;11.116;2022-10-22T01:07:50;100918.25;;;14.02;100.00
49104;BME280;34915;52.926;11.116;2022-10-22T01:13:35;100919.59;;;13.85;100.00
49104;BME280;34915;52.926;11.116;2022-10-22T01:21:24;100911.66;;;13.75;100.00
49104;BME280;34915;52.926;11.116;2022-10-22T01:29:42;100910.19;;;13.71;100.00
49104;BME280;34915;52.926;11.116;2022-10-22T01:32:17;100907.66;;;13.69;100.00
49104;BME280;34915;52.926;11.116;2022-10-22T01:34:48;100919.19;;;13.70;100.00
49104;BME280;34915;52.926;11.116;2022-10-22T01:37:16;100927.28;;;13.68;100.00
49104;BME280;34915;52.926;11.116;2022-10-22T01:39:46;100930.06;;;13.67;100.00
49104;BME280;34915;52.926;11.116;2022-10-22T01:42:18;100931.50;;;13.71;100.00
49104;BME280;34915;52.926;11.116;2022-10-22T01:44:44;100917.72;;;13.66;100.00
49104;BME280;34915;52.926;11.116;2022-10-22T01:52:55;100923.28;;;13.63;100.00
49104;BME280;34915;52.926;11.116;2022-10-22T01:58:15;100918.22;;;13.60;100.00
49104;BME280;34915;52.926;11.116;2022-10-22T02:00:53;100913.72;;;13.60;100.00
49104;BME280;34915;52.926;11.116;2022-10-22T02:03:32;100898.25;;;13.54;100.00
49104;BME280;34915;52.926;11.116;2022-10-22T02:06:03;100892.34;;;13.51;100.00
49104;BME280;34915;52.926;11.116;2022-10-22T02:08:34;100883.63;;;13.49;100.00
49104;BME280;34915;52.926;11.116;2022-10-22T02:11:03;100895.97;;;13.50;100.00
49104;BME280;34915;52.926;11.116;2022-10-22T02:13:40;100898.63;;;13.50;100.00
49104;BME280;34915;52.926;11.116;2022-10-22T02:16:17;100905.66;;;13.51;100.00
49104;BME280;34915;52.926;11.116;2022-10-22T02:18:45;100910.22;;;13.49;100.00
49104;BME280;34915;52.926;11.116;2022-10-22T02:21:14;100914.34;;;13.53;100.00
49104;BME280;34915;52.926;11.116;2022-10-22T02:23:40;100924.03;;;13.54;100.00
49104;BME280;34915;52.926;11.116;2022-10-22T02:28:57;100913.00;;;13.47;100.00
49104;BME280;34915;52.926;11.116;2022-10-22T02:31:31;100915.78;;;13.46;100.00
49104;BME280;34915;52.926;11.116;2022-10-22T02:34:02;100915.78;;;13.46;100.00
49104;BME280;34915;52.926;11.116;2022-10-22T02:36:30;100906.84;;;13.47;100.00
49104;BME280;34915;52.926;11.116;2022-10-22T02:38:57;100900.69;;;13.46;100.00
49104;BME280;34915;52.926;11.116;2022-10-22T02:41:26;100903.69;;;13.42;100.00
49104;BME280;34915;52.926;11.116;2022-10-22T02:43:54;100895.97;;;13.39;100.00
49104;BME280;34915;52.926;11.116;2022-10-22T02:46:23;100892.84;;;13.34;100.00
49104;BME280;34915;52.926;11.116;2022-10-22T02:48:51;100893.78;;;13.33;100.00
49104;BME280;34915;52.926;11.116;2022-10-22T02:51:16;100899.50;;;13.39;100.00
49104;BME280;34915;52.926;11.116;2022-10-22T02:53:42;100899.97;;;13.33;100.00
49104;BME280;34915;52.926;11.116;2022-10-22T02:56:12;100887.63;;;13.32;100.00
49104;BME280;34915;52.926;11.116;2022-10-22T02:58:39;100897.44;;;13.32;100.00
49104;BME280;34915;52.926;11.116;2022-10-22T03:01:05;100900.47;;;13.28;100.00
49104;BME280;34915;52.926;11.116;2022-10-22T03:03:31;100908.31;;;13.29;100.00
49104;BME280;34915;52.926;11.116;2022-10-22T03:06:00;100901.31;;;13.28;100.00
49104;BME280;34915;52.926;11.116;2022-10-22T03:08:26;100899.59;;;13.27;100.00
49104;BME280;34915;52.926;11.116;2022-10-22T03:10:52;100910.25;;;13.27;100.00
49104;BME280;34915;52.926;11.116;2022-10-22T03:13:20;100915.81;;;13.24;100.00
49104;BME280;34915;52.926;11.116;2022-10-22T03:15:49;100907.94;;;13.23;100.00
49104;BME280;34915;52.926;11.116;2022-10-22T03:18:16;100920.16;;;13.25;100.00
49104;BME280;34915;52.926;11.116;2022-10-22T03:20:47;100917.75;;;13.22;100.00
49104;BME280;34915;52.926;11.116;2022-10-22T03:23:18;100921.84;;;13.15;100.00
49104;BME280;34915;52.926;11.116;2022-10-22T03:25:48;100918.00;;;13.19;100.00
49104;BME280;34915;52.926;11.116;2022-10-22T03:28:16;100921.38;;;13.21;100.00
49104;BME280;34915;52.926;11.116;2022-10-22T03:30:47;100913.38;;;13.21;100.00
49104;BME280;34915;52.926;11.116;2022-10-22T03:33:12;100915.69;;;13.15;100.00
49104;BME280;34915;52.926;11.116;2022-10-22T03:35:43;100920.75;;;13.07;100.00
49104;BME280;34915;52.926;11.116;2022-10-22T03:38:11;100929.84;;;13.04;100.00
49104;BME280;34915;52.926;11.116;2022-10-22T03:40:41;100924.78;;;13.01;100.00
49104;BME280;34915;52.926;11.116;2022-10-22T03:43:08;100937.31;;;12.99;100.00
49104;BME280;34915;52.926;11.116;2022-10-22T03:45:34;100942.88;;;12.96;100.00
49104;BME280;34915;52.926;11.116;2022-10-22T03:48:02;100944.03;;;12.81;100.00
49104;BME280;34915;52.926;11.116;2022-10-22T03:50:28;100941.59;;;12.78;100.00
49104;BME280;34915;52.926;11.116;2022-10-22T03:52:54;100945.22;;;12.77;100.00
49104;BME280;34915;52.926;11.116;2022-10-22T03:55:19;100948.84;;;12.77;100.00
49104;BME280;34915;52.926;11.116;2022-10-22T03:57:45;100951.50;;;12.77;100.00
49104;BME280;34915;52.926;11.116;2022-10-22T04:00:12;100949.59;;;12.78;100.00
49104;BME280;34915;52.926;11.116;2022-10-22T04:02:41;100953.19;;;12.77;100.00
49104;BME280;34915;52.926;11.116;2022-10-22T04:05:09;100958.16;;;12.71;100.00
49104;BME280;34915;52.926;11.116;2022-10-22T04:07:38;100960.06;;;12.69;100.00
49104;BME280;34915;52.926;11.116;2022-10-22T04:10:04;100955.59;;;12.70;100.00
49104;BME280;34915;52.926;11.116;2022-10-22T04:12:34;100944.97;;;12.70;100.00
49104;BME280;34915;52.926;11.116;2022-10-22T04:15:01;100947.75;;;12.68;100.00
49104;BME280;34915;52.926;11.116;2022-10-22T04:17:32;100953.41;;;12.64;100.00
49104;BME280;34915;52.926;11.116;2022-10-22T04:19:58;100963.53;;;12.59;100.00
49104;BME280;34915;52.926;11.116;2022-10-22T04:22:24;100961.84;;;12.58;100.00
49104;BME280;34915;52.926;11.116;2022-10-22T04:24:49;100954.84;;;12.57;100.00
49104;BME280;34915;52.926;11.116;2022-10-22T04:27:15;100961.84;;;12.58;100.00
49104;BME280;34915;52.926;11.116;2022-10-22T04:29:40;100967.88;;;12.60;100.00
49104;BME280;34915;52.926;11.116;2022-10-22T04:32:06;100980.94;;;12.63;100.00
49104;BME280;34915;52.926;11.116;2022-10-22T04:34:34;100973.91;;;12.62;100.00
49104;BME280;34915;52.926;11.116;2022-10-22T04:37:00;100977.56;;;12.61;100.00
49104;BME280;34915;52.926;11.116;2022-10-22T04:39:26;100980.34;;;12.59;100.00
49104;BME280;34915;52.926;11.116;2022-10-22T04:41:56;100981.19;;;12.60;100.00
49104;BME280;34915;52.926;11.116;2022-10-22T04:44:21;100982.88;;;12.61;100.00
49104;BME280;34915;52.926;11.116;2022-10-22T04:46:47;100984.78;;;12.59;100.00
49104;BME280;34915;52.926;11.116;2022-10-22T04:49:15;100983.13;;;12.58;100.00
49104;BME280;34915;52.926;11.116;2022-10-22T04:51:41;100977.50;;;12.50;100.00
49104;BME280;34915;52.926;11.116;2022-10-22T04:54:08;100980.88;;;12.52;100.00
49104;BME280;34915;52.926;11.116;2022-10-22T04:56:33;100983.53;;;12.52;100.00
49104;BME280;34915;52.926;11.116;2022-10-22T04:59:03;100978.47;;;12.49;100.00
49104;BME280;34915;52.926;11.116;2022-10-22T05:01:37;100978.47;;;12.49;100.00
49104;BME280;34915;52.926;11.116;2022-10-22T05:04:07;100990.31;;;12.45;100.00
49104;BME280;34915;52.926;11.116;2022-10-22T05:06:39;100984.00;;;12.46;100.00
49104;BME280;34915;52.926;11.116;2022-10-22T05:09:09;100993.78;;;12.45;100.00
49104;BME280;34915;52.926;11.116;2022-10-22T05:11:42;100988.47;;;12.45;100.00
49104;BME280;34915;52.926;11.116;2022-10-22T05:14:15;100989.78;;;12.40;100.00
49104;BME280;34915;52.926;11.116;2022-10-22T05:16:41;100988.53;;;12.33;100.00
49104;BME280;34915;52.926;11.116;2022-10-22T05:19:14;100999.63;;;12.27;100.00
49104;BME280;34915;52.926;11.116;2022-10-22T05:21:41;101003.25;;;12.26;100.00
49104;BME280;34915;52.926;11.116;2022-10-22T05:24:07;101001.78;;;12.22;100.00
49104;BME280;34915;52.926;11.116;2022-10-22T05:26:32;101007.09;;;12.22;100.00
49104;BME280;34915;52.926;11.116;2022-10-22T05:28:58;101005.16;;;12.24;100.00
49104;BME280;34915;52.926;11.116;2022-10-22T05:31:26;101006.84;;;12.25;100.00
49104;BME280;34915;52.926;11.116;2022-10-22T05:33:56;101006.84;;;12.25;100.00
49104;BME280;34915;52.926;11.116;2022-10-22T05:36:25;101004.94;;;12.27;100.00
49104;BME280;34915;52.926;11.116;2022-10-22T05:38:51;101013.88;;;12.26;100.00
49104;BME280;34915;52.926;11.116;2022-10-22T05:41:19;101012.66;;;12.30;100.00
49104;BME280;34915;52.926;11.116;2022-10-22T05:43:46;101011.94;;;12.28;100.00
49104;BME280;34915;52.926;11.116;2022-10-22T05:46:14;101007.59;;;12.27;100.00
49104;BME280;34915;52.926;11.116;2022-10-22T05:48:40;101009.28;;;12.28;100.00
49104;BME280;34915;52.926;11.116;2022-10-22T05:51:11;101004.94;;;12.27;100.00
49104;BME280;34915;52.926;11.116;2022-10-22T05:53:44;101004.94;;;12.27;100.00
49104;BME280;34915;52.926;11.116;2022-10-22T05:56:13;101003.03;;;12.29;100.00
49104;BME280;34915;52.926;11.116;2022-10-22T05:58:39;100991.97;;;12.23;100.00
49104;BME280;34915;52.926;11.116;2022-10-22T06:01:38;100993.31;;;12.17;100.00
49104;BME280;34915;52.926;11.116;2022-10-22T06:04:07;100995.22;;;12.15;100.00
49104;BME280;34915;52.926;11.116;2022-10-22T06:06:38;101003.94;;;12.17;100.00
49104;BME280;34915;52.926;11.116;2022-10-22T06:09:26;101012.84;;;12.16;100.00
49104;BME280;34915;52.926;11.116;2022-10-22T06:11:56;101019.09;;;12.15;100.00
49104;BME280;34915;52.926;11.116;2022-10-22T06:14:25;101019.88;;;12.17;100.00
49104;BME280;34915;52.926;11.116;2022-10-22T06:16:51;101014.78;;;12.14;100.00
49104;BME280;34915;52.926;11.116;2022-10-22T06:19:20;101014.34;;;12.20;100.00
49104;BME280;34915;52.926;11.116;2022-10-22T06:21:53;101018.97;;;12.29;100.00
49104;BME280;34915;52.926;11.116;2022-10-22T06:24:21;101019.19;;;12.26;100.00
49104;BME280;34915;52.926;11.116;2022-10-22T06:26:51;101030.03;;;12.23;100.00
49104;BME280;34915;52.926;11.116;2022-10-22T06:29:16;101031.94;;;12.21;100.00
49104;BME280;34915;52.926;11.116;2022-10-22T06:31:47;101035.00;;;12.28;100.00
49104;BME280;34915;52.926;11.116;2022-10-22T06:34:14;101042.34;;;12.24;100.00
49104;BME280;34915;52.926;11.116;2022-10-22T06:36:40;101036.53;;;12.19;100.00
49104;BME280;34915;52.926;11.116;2022-10-22T06:39:12;101048.53;;;12.12;100.00
49104;BME280;34915;52.926;11.116;2022-10-22T06:41:45;101050.47;;;12.10;100.00
49104;BME280;34915;52.926;11.116;2022-10-22T06:44:17;101048.78;;;12.09;100.00
49104;BME280;34915;52.926;11.116;2022-10-22T06:46:43;101053.84;;;12.12;100.00
49104;BME280;34915;52.926;11.116;2022-10-22T06:49:14;101051.31;;;12.11;100.00
49104;BME280;34915;52.926;11.116;2022-10-22T06:51:43;101058.94;;;12.15;100.00
49104;BME280;34915;52.926;11.116;2022-10-22T06:54:09;101058.94;;;12.15;100.00
49104;BME280;34915;52.926;11.116;2022-10-22T06:56:35;101057.28;;;12.14;100.00
49104;BME280;34915;52.926;11.116;2022-10-22T06:59:06;101061.50;;;12.17;100.00
49104;BME280;34915;52.926;11.116;2022-10-22T07:01:36;101064.91;;;12.19;100.00
49104;BME280;34915;52.926;11.116;2022-10-22T07:04:02;101065.75;;;12.19;100.00
49104;BME280;34915;52.926;11.116;2022-10-22T07:06:33;101067.22;;;12.23;100.00
49104;BME280;34915;52.926;11.116;2022-10-22T07:08:59;101074.00;;;12.27;100.00
49104;BME280;34915;52.926;11.116;2022-10-22T07:11:52;101076.72;;;12.38;100.00
49104;BME280;34915;52.926;11.116;2022-10-22T07:14:23;101085.44;;;12.40;100.00
49104;BME280;34915;52.926;11.116;2022-10-22T07:16:48;101089.06;;;12.39;100.00
49104;BME280;34915;52.926;11.116;2022-10-22T07:19:14;101094.16;;;12.42;100.00
49104;BME280;34915;52.926;11.116;2022-10-22T07:21:40;101092.00;;;12.47;100.00
49104;BME280;34915;52.926;11.116;2022-10-22T07:24:06;101099.03;;;12.48;100.00
49104;BME280;34915;52.926;11.116;2022-10-22T07:26:35;101111.09;;;12.52;100.00
49104;BME280;34915;52.926;11.116;2022-10-22T07:29:04;101109.88;;;12.45;100.00
49104;BME280;34915;52.926;11.116;2022-10-22T07:31:30;101109.88;;;12.45;100.00
49104;BME280;34915;52.926;11.116;2022-10-22T07:33:56;101115.81;;;12.48;100.00
49104;BME280;34915;52.926;11.116;2022-10-22T07:36:22;101120.78;;;12.53;100.00
49104;BME280;34915;52.926;11.116;2022-10-22T07:38:54;101127.25;;;12.61;100.00
49104;BME280;34915;52.926;11.116;2022-10-22T07:41:22;101129.56;;;12.66;100.00
49104;BME280;34915;52.926;11.116;2022-10-22T07:43:48;101123.91;;;12.70;100.00
49104;BME280;34915;52.926;11.116;2022-10-22T07:46:17;101118.84;;;12.78;100.00
49104;BME280;34915;52.926;11.116;2022-10-22T07:48:48;101129.72;;;12.87;100.00
49104;BME280;34915;52.926;11.116;2022-10-22T07:51:14;101130.28;;;13.03;100.00
49104;BME280;34915;52.926;11.116;2022-10-22T07:53:41;101128.97;;;13.09;100.00
49104;BME280;34915;52.926;11.116;2022-10-22T07:56:11;101128.41;;;13.16;100.00
49104;BME280;34915;52.926;11.116;2022-10-22T07:58:38;101128.88;;;13.21;100.00
49104;BME280;34915;52.926;11.116;2022-10-22T08:01:07;101128.66;;;13.24;100.00
49104;BME280;34915;52.926;11.116;2022-10-22T08:03:33;101135.22;;;13.31;100.00
49104;BME280;34915;52.926;11.116;2022-10-22T08:05:59;101141.78;;;13.38;100.00
49104;BME280;34915;52.926;11.116;2022-10-22T08:08:28;101128.94;;;13.32;100.00
49104;BME280;34915;52.926;11.116;2022-10-22T08:11:01;101143.91;;;13.33;100.00
49104;BME280;34915;52.926;11.116;2022-10-22T08:13:32;101150.00;;;13.35;100.00
49104;BME280;34915;52.926;11.116;2022-10-22T08:16:00;101145.41;;;13.37;100.00
49104;BME280;34915;52.926;11.116;2022-10-22T08:18:27;101146.00;;;13.40;100.00
49104;BME280;34915;52.926;11.116;2022-10-22T08:20:57;101148.34;;;13.45;100.00
49104;BME280;34915;52.926;11.116;2022-10-22T08:23:26;101141.06;;;13.47;100.00
49104;BME280;34915;52.926;11.116;2022-10-22T08:25:53;101153.44;;;13.48;100.00
49104;BME280;34915;52.926;11.116;2022-10-22T08:28:20;101145.94;;;13.53;100.00
49104;BME280;34915;52.926;11.116;2022-10-22T08:30:48;101152.72;;;13.57;100.00
49104;BME280;34915;52.926;11.116;2022-10-22T08:33:14;101146.22;;;13.72;100.00
49104;BME280;34915;52.926;11.116;2022-10-22T08:35:40;101154.69;;;13.77;100.00
49104;BME280;34915;52.926;11.116;2022-10-22T08:38:08;101148.44;;;13.88;100.00
49104;BME280;34915;52.926;11.116;2022-10-22T08:40:38;101146.59;;;14.00;100.00
49104;BME280;34915;52.926;11.116;2022-10-22T08:49:08;101163.59;;;14.42;100.00
49104;BME280;34915;52.926;11.116;2022-10-22T08:51:41;101167.34;;;14.62;100.00
49104;BME280;34915;52.926;11.116;2022-10-22T08:57:18;101173.09;;;14.88;100.00
49104;BME280;34915;52.926;11.116;2022-10-22T09:00:02;101162.66;;;14.85;100.00
49104;BME280;34915;52.926;11.116;2022-10-22T09:05:34;101168.88;;;15.17;100.00
49104;BME280;34915;52.926;11.116;2022-10-22T09:08:08;101170.81;;;15.26;100.00
49104;BME280;34915;52.926;11.116;2022-10-22T09:10:39;101169.78;;;15.38;100.00
49104;BME280;34915;52.926;11.116;2022-10-22T09:13:14;101168.78;;;15.50;100.00
49104;BME280;34915;52.926;11.116;2022-10-22T09:15:41;101175.63;;;15.63;100.00
49104;BME280;34915;52.926;11.116;2022-10-22T09:20:49;101167.66;;;15.93;100.00
49104;BME280;34915;52.926;11.116;2022-10-22T09:23:43;101169.66;;;16.00;100.00
49104;BME280;34915;52.926;11.116;2022-10-22T09:26:16;101170.56;;;16.10;100.00
49104;BME280;34915;52.926;11.116;2022-10-22T09:28:50;101164.38;;;16.10;100.00
49104;BME280;34915;52.926;11.116;2022-10-22T09:31:16;101167.34;;;16.16;100.00
49104;BME280;34915;52.926;11.116;2022-10-22T09:33:49;101160.59;;;16.12;100.00
49104;BME280;34915;52.926;11.116;2022-10-22T09:36:17;101159.31;;;16.16;100.00
49104;BME280;34915;52.926;11.116;2022-10-22T09:38:50;101170.03;;;16.16;100.00
49104;BME280;34915;52.926;11.116;2022-10-22T09:41:37;101167.13;;;16.58;100.00
49104;BME280;34915;52.926;11.116;2022-10-22T09:44:23;101180.63;;;16.47;100.00
49104;BME280;34915;52.926;11.116;2022-10-22T09:46:49;101170.06;;;16.46;100.00
49104;BME280;34915;52.926;11.116;2022-10-22T09:49:22;101184.34;;;16.75;100.00
49104;BME280;34915;52.926;11.116;2022-10-22T09:51:59;101179.28;;;16.72;100.00
49104;BME280;34915;52.926;11.116;2022-10-22T09:59:32;101187.25;;;17.01;100.00
49104;BME280;34915;52.926;11.116;2022-10-22T10:02:20;101174.19;;;17.17;100.00
49104;BME280;34915;52.926;11.116;2022-10-22T10:04:52;101184.59;;;17.20;100.00
49104;BME280;34915;52.926;11.116;2022-10-22T10:07:27;101184.22;;;17.34;100.00
49104;BME280;34915;52.926;11.116;2022-10-22T10:09:55;101183.50;;;17.51;100.00
49104;BME280;34915;52.926;11.116;2022-10-22T10:15:16;101182.81;;;17.49;100.00
49104;BME280;34915;52.926;11.116;2022-10-22T10:24:07;101172.91;;;17.77;98.88
49104;BME280;34915;52.926;11.116;2022-10-22T10:35:02;101181.56;;;18.36;93.91
49104;BME280;34915;52.926;11.116;2022-10-22T10:37:39;101183.25;;;18.27;95.51
49104;BME280;34915;52.926;11.116;2022-10-22T10:40:29;101188.88;;;18.34;94.64
49104;BME280;34915;52.926;11.116;2022-10-22T10:48:36;101187.31;;;18.68;91.92
49104;BME280;34915;52.926;11.116;2022-10-22T10:56:47;101187.81;;;18.80;90.22
49104;BME280;34915;52.926;11.116;2022-10-22T11:07:32;101195.28;;;19.13;85.41
49104;BME280;34915;52.926;11.116;2022-10-22T11:12:46;101192.66;;;19.21;85.21
49104;BME280;34915;52.926;11.116;2022-10-22T11:15:32;101197.75;;;19.24;83.16
49104;BME280;34915;52.926;11.116;2022-10-22T11:18:17;101189.53;;;19.26;84.90
49104;BME280;34915;52.926;11.116;2022-10-22T11:23:54;101189.78;;;19.32;82.62
49104;BME280;34915;52.926;11.116;2022-10-22T11:26:49;101183.31;;;19.42;82.29
49104;BME280;34915;52.926;11.116;2022-10-22T11:29:22;101184.88;;;19.45;82.10
49104;BME280;34915;52.926;11.116;2022-10-22T11:31:51;101188.53;;;19.44;81.14
49104;BME280;34915;52.926;11.116;2022-10-22T11:34:34;101176.09;;;19.43;80.78
49104;BME280;34915;52.926;11.116;2022-10-22T11:37:05;101184.56;;;19.48;79.78
49104;BME280;34915;52.926;11.116;2022-10-22T11:39:42;101180.53;;;19.52;80.61
49104;BME280;34915;52.926;11.116;2022-10-22T11:42:31;101173.19;;;19.54;79.89
49104;BME280;34915;52.926;11.116;2022-10-22T11:45:23;101172.56;;;19.60;79.54
49104;BME280;34915;52.926;11.116;2022-10-22T11:50:56;101174.69;;;19.74;78.77
49104;BME280;34915;52.926;11.116;2022-10-22T11:53:36;101177.06;;;19.76;78.14
49104;BME280;34915;52.926;11.116;2022-10-22T11:58:42;101179.13;;;19.82;79.19
49104;BME280;34915;52.926;11.116;2022-10-22T12:06:52;101172.53;;;19.94;78.72
49104;BME280;34915;52.926;11.116;2022-10-22T12:09:23;101178.97;;;20.01;78.03
49104;BME280;34915;52.926;11.116;2022-10-22T12:11:51;101168.44;;;20.08;76.54
49104;BME280;34915;52.926;11.116;2022-10-22T12:14:32;101174.31;;;20.11;75.62
49104;BME280;34915;52.926;11.116;2022-10-22T12:17:11;101174.56;;;20.18;75.72
49104;BME280;34915;52.926;11.116;2022-10-22T12:19:42;101169.81;;;20.12;75.80
49104;BME280;34915;52.926;11.116;2022-10-22T12:24:49;101174.00;;;20.14;76.10
49104;BME280;34915;52.926;11.116;2022-10-22T12:27:24;101176.06;;;20.20;75.38
49104;BME280;34915;52.926;11.116;2022-10-22T12:29:58;101170.16;;;20.17;74.81
49104;BME280;34915;52.926;11.116;2022-10-22T12:32:38;101172.72;;;20.26;75.70
49104;BME280;34915;52.926;11.116;2022-10-22T12:35:14;101176.13;;;20.28;75.46
49104;BME280;34915;52.926;11.116;2022-10-22T12:37:41;101174.97;;;20.30;74.85
49104;BME280;34915;52.926;11.116;2022-10-22T12:40:32;101174.09;;;20.30;75.10
49104;BME280;34915;52.926;11.116;2022-10-22T12:43:00;101185.41;;;20.33;75.31
49104;BME280;34915;52.926;11.116;2022-10-22T12:45:32;101184.56;;;20.33;75.95
49104;BME280;34915;52.926;11.116;2022-10-22T12:48:04;101181.50;;;20.28;75.96
49104;BME280;34915;52.926;11.116;2022-10-22T12:50:34;101181.50;;;20.28;76.29
49104;BME280;34915;52.926;11.116;2022-10-22T12:53:29;101183.22;;;20.29;77.78
49104;BME280;34915;52.926;11.116;2022-10-22T12:56:00;101179.16;;;20.33;77.95
49104;BME280;34915;52.926;11.116;2022-10-22T12:58:39;101181.19;;;20.31;78.22
49104;BME280;34915;52.926;11.116;2022-10-22T13:01:09;101178.84;;;20.36;78.20
49104;BME280;34915;52.926;11.116;2022-10-22T13:03:41;101188.59;;;20.29;78.73
49104;BME280;34915;52.926;11.116;2022-10-22T13:06:22;101187.22;;;20.25;78.63
49104;BME280;34915;52.926;11.116;2022-10-22T13:11:36;101203.44;;;19.90;80.24
49104;BME280;34915;52.926;11.116;2022-10-22T13:17:07;101204.50;;;19.97;80.90
49104;BME280;34915;52.926;11.116;2022-10-22T13:22:35;101209.13;;;19.87;78.69
49104;BME280;34915;52.926;11.116;2022-10-22T13:30:51;101201.97;;;19.78;78.89
49104;BME280;34915;52.926;11.116;2022-10-22T13:33:24;101202.66;;;19.80;79.63
49104;BME280;34915;52.926;11.116;2022-10-22T13:35:55;101209.72;;;19.81;79.93
49104;BME280;34915;52.926;11.116;2022-10-22T13:38:26;101205.13;;;19.74;80.63
49104;BME280;34915;52.926;11.116;2022-10-22T13:40:53;101201.56;;;19.74;80.90
49104;BME280;34915;52.926;11.116;2022-10-22T13:43:19;101204.66;;;19.78;80.56
49104;BME280;34915;52.926;11.116;2022-10-22T13:45:50;101208.66;;;19.75;81.78
49104;BME280;34915;52.926;11.116;2022-10-22T13:48:19;101202.34;;;19.83;80.17
49104;BME280;34915;52.926;11.116;2022-10-22T13:50:49;101206.63;;;19.76;80.85
49104;BME280;34915;52.926;11.116;2022-10-22T13:53:22;101202.44;;;19.74;81.41
49104;BME280;34915;52.926;11.116;2022-10-22T13:55:48;101208.66;;;19.75;81.35
49104;BME280;34915;52.926;11.116;2022-10-22T13:58:21;101210.97;;;19.70;81.68
49104;BME280;34915;52.926;11.116;2022-10-22T14:00:56;101206.06;;;19.65;82.10
49104;BME280;34915;52.926;11.116;2022-10-22T14:03:32;101203.75;;;19.53;82.68
49104;BME280;34915;52.926;11.116;2022-10-22T14:05:59;101212.19;;;19.58;83.03
49104;BME280;34915;52.926;11.116;2022-10-22T14:08:26;101208.03;;;19.46;81.89
49104;BME280;34915;52.926;11.116;2022-10-22T14:10:54;101212.63;;;19.36;82.75
49104;BME280;34915;52.926;11.116;2022-10-22T14:13:21;101214.34;;;19.37;83.17
49104;BME280;34915;52.926;11.116;2022-10-22T14:15:51;101218.63;;;19.30;85.13
49104;BME280;34915;52.926;11.116;2022-10-22T14:18:25;101210.06;;;19.44;84.06
49104;BME280;34915;52.926;11.116;2022-10-22T14:20:57;101215.66;;;19.50;83.85
49104;BME280;34915;52.926;11.116;2022-10-22T14:23:29;101213.66;;;19.52;84.52
49104;BME280;34915;52.926;11.116;2022-10-22T14:25:59;101220.66;;;19.63;84.99
49104;BME280;34915;52.926;11.116;2022-10-22T14:28:26;101221.25;;;19.57;85.78
49104;BME280;34915;52.926;11.116;2022-10-22T14:30:53;101224.16;;;19.46;86.90
49104;BME280;34915;52.926;11.116;2022-10-22T14:33:25;101222.03;;;19.32;87.85
49104;BME280;34915;52.926;11.116;2022-10-22T14:35:51;101227.59;;;19.21;90.02
49104;BME280;34915;52.926;11.116;2022-10-22T14:38:20;101222.81;;;19.42;87.46
49104;BME280;34915;52.926;11.116;2022-10-22T14:40:50;101224.78;;;19.40;89.52
49104;BME280;34915;52.926;11.116;2022-10-22T14:43:19;101218.72;;;19.21;95.28
49104;BME280;34915;52.926;11.116;2022-10-22T14:45:48;101225.03;;;19.02;93.18
49104;BME280;34915;52.926;11.116;2022-10-22T14:48:15;101223.72;;;18.79;94.56